Flowery Branch, Georgia
Current Conditions -  °F | °C
As of 3:53 PM on Friday 24 Oct 2014 (Local Time) from KGVL Reporting Station
Clear Clear  
Wind Chill: 68°   Ceiling: Unl
Heat Index: 68°   Visibility: 10mi
Dew Point: 42°   Wind: 9mph
Humidity: 39%   Direction: 250°WSW
Pressure: 30.03"   Gusts: NA
Location:  34.19°N, 83.93°W
Report Text: KGVL 241953Z AUTO 25008KT 10SM CLR 20/06 A3003 RMK AO2 SLP162 T02000056
Loading
Personal Weather Stations






























Interactive Weather Map
Tropical Storm Tracking
New forecast layout! Learn more

10-Day Weather Forecast

Advertisements
Track Severe Weather on mobile